CKY8 weather

Arkayla Springs Airport
Cochrane, Alberta, Canada

Public forecast

Using degrees Celsius for public forecast. Weather courtesy of forecast.io.

METAR (pilot weather report)

Closest report is Calgary / Springbank Airport, 16.3 nm (30.1 km) ESE. Retrieved 2019/09/17 05:00 UTC (51 minutes ago):

CYBW 170500Z AUTO 02010KT 9SM SCT250 10/08 A2974 RMK SLP083 DENSITY ALT 4400FT

TAF (pilot weather forecast)

Forecast is more than 12 hours old.

Closest forecast is Calgary / Springbank Airport, 16.3 nm (30.1 km) ESE. Retrieved 2019/09/16 00:00 UTC (1 day ago):

TAF CYBW 162338Z 1700/1704 VRB03KT P6SM FEW040 BKN120 BKN220 TEMPO 1700/1704 P6SM -SHRA VCTS SCT040CB BKN120 BKN220 RMK FCST BASED ON AUTO OBS. NXT FCST WILL BE ISSUED AT 171145Z